sensor_id;sensor_type;location;lat;lon;timestamp;temperature;humidity
30304;DHT22;17112;48.636;10.152;2023-02-21T00:00:01;5.80;58.70
30304;DHT22;17112;48.636;10.152;2023-02-21T00:02:45;5.80;58.70
30304;DHT22;17112;48.636;10.152;2023-02-21T00:05:29;5.80;59.10
30304;DHT22;17112;48.636;10.152;2023-02-21T00:08:13;5.80;58.70
30304;DHT22;17112;48.636;10.152;2023-02-21T00:10:57;5.80;58.80
30304;DHT22;17112;48.636;10.152;2023-02-21T00:13:41;5.70;58.90
30304;DHT22;17112;48.636;10.152;2023-02-21T00:16:25;5.70;58.90
30304;DHT22;17112;48.636;10.152;2023-02-21T00:19:10;5.70;59.00
30304;DHT22;17112;48.636;10.152;2023-02-21T00:21:54;5.70;59.00
30304;DHT22;17112;48.636;10.152;2023-02-21T00:24:38;5.70;58.90
30304;DHT22;17112;48.636;10.152;2023-02-21T00:27:24;5.70;59.10
30304;DHT22;17112;48.636;10.152;2023-02-21T00:30:08;5.70;59.00
30304;DHT22;17112;48.636;10.152;2023-02-21T00:32:53;5.70;59.00
30304;DHT22;17112;48.636;10.152;2023-02-21T00:35:37;5.70;59.20
30304;DHT22;17112;48.636;10.152;2023-02-21T00:38:21;5.70;59.20
30304;DHT22;17112;48.636;10.152;2023-02-21T00:41:06;5.70;58.90
30304;DHT22;17112;48.636;10.152;2023-02-21T00:43:50;5.70;59.10
30304;DHT22;17112;48.636;10.152;2023-02-21T00:46:35;5.70;59.20
30304;DHT22;17112;48.636;10.152;2023-02-21T00:49:19;5.70;59.20
30304;DHT22;17112;48.636;10.152;2023-02-21T00:52:03;5.70;59.20
30304;DHT22;17112;48.636;10.152;2023-02-21T00:54:48;5.70;59.20
30304;DHT22;17112;48.636;10.152;2023-02-21T00:57:31;5.70;59.20
30304;DHT22;17112;48.636;10.152;2023-02-21T01:00:19;5.70;59.20
30304;DHT22;17112;48.636;10.152;2023-02-21T01:03:04;5.70;59.20
30304;DHT22;17112;48.636;10.152;2023-02-21T01:05:48;5.70;59.10
30304;DHT22;17112;48.636;10.152;2023-02-21T01:08:32;5.70;59.60
30304;DHT22;17112;48.636;10.152;2023-02-21T01:11:18;5.70;58.50
30304;DHT22;17112;48.636;10.152;2023-02-21T01:14:03;5.70;58.90
30304;DHT22;17112;48.636;10.152;2023-02-21T01:16:48;5.60;59.00
30304;DHT22;17112;48.636;10.152;2023-02-21T01:19:32;5.60;59.00
30304;DHT22;17112;48.636;10.152;2023-02-21T01:22:16;5.60;59.10
30304;DHT22;17112;48.636;10.152;2023-02-21T01:25:01;5.60;59.10
30304;DHT22;17112;48.636;10.152;2023-02-21T01:27:45;5.50;59.10
30304;DHT22;17112;48.636;10.152;2023-02-21T01:30:29;5.50;59.20
30304;DHT22;17112;48.636;10.152;2023-02-21T01:33:13;5.50;59.10
30304;DHT22;17112;48.636;10.152;2023-02-21T01:35:57;5.50;59.10
30304;DHT22;17112;48.636;10.152;2023-02-21T01:38:42;5.50;59.10
30304;DHT22;17112;48.636;10.152;2023-02-21T01:41:26;5.50;59.10
30304;DHT22;17112;48.636;10.152;2023-02-21T01:44:37;5.40;59.60
30304;DHT22;17112;48.636;10.152;2023-02-21T01:47:22;5.40;59.40
30304;DHT22;17112;48.636;10.152;2023-02-21T01:50:17;5.40;59.00
30304;DHT22;17112;48.636;10.152;2023-02-21T01:53:17;5.40;59.70
30304;DHT22;17112;48.636;10.152;2023-02-21T01:56:02;5.30;59.10
30304;DHT22;17112;48.636;10.152;2023-02-21T01:58:48;5.20;58.90
30304;DHT22;17112;48.636;10.152;2023-02-21T02:04:46;5.20;59.50
30304;DHT22;17112;48.636;10.152;2023-02-21T02:07:31;5.10;59.30
30304;DHT22;17112;48.636;10.152;2023-02-21T02:10:16;5.10;59.50
30304;DHT22;17112;48.636;10.152;2023-02-21T02:15:40;5.10;59.50
30304;DHT22;17112;48.636;10.152;2023-02-21T02:21:37;5.00;60.40
30304;DHT22;17112;48.636;10.152;2023-02-21T02:24:37;5.00;60.20
30304;DHT22;17112;48.636;10.152;2023-02-21T02:27:21;5.00;60.30
30304;DHT22;17112;48.636;10.152;2023-02-21T02:35:45;4.90;60.80
30304;DHT22;17112;48.636;10.152;2023-02-21T02:38:33;4.90;60.80
30304;DHT22;17112;48.636;10.152;2023-02-21T02:41:37;4.80;60.80
30304;DHT22;17112;48.636;10.152;2023-02-21T02:46:53;4.80;60.40
30304;DHT22;17112;48.636;10.152;2023-02-21T02:49:22;4.80;61.10
30304;DHT22;17112;48.636;10.152;2023-02-21T02:51:50;4.70;59.90
30304;DHT22;17112;48.636;10.152;2023-02-21T02:54:16;4.70;60.10
30304;DHT22;17112;48.636;10.152;2023-02-21T02:56:43;4.70;60.20
30304;DHT22;17112;48.636;10.152;2023-02-21T02:59:23;4.60;60.40
30304;DHT22;17112;48.636;10.152;2023-02-21T03:12:49;4.60;61.50
30304;DHT22;17112;48.636;10.152;2023-02-21T03:15:26;4.60;61.00
30304;DHT22;17112;48.636;10.152;2023-02-21T03:17:58;4.60;60.70
30304;DHT22;17112;48.636;10.152;2023-02-21T03:20:26;4.50;60.60
30304;DHT22;17112;48.636;10.152;2023-02-21T03:22:53;4.50;60.70
30304;DHT22;17112;48.636;10.152;2023-02-21T03:25:21;4.50;60.80
30304;DHT22;17112;48.636;10.152;2023-02-21T03:27:48;4.50;61.70
30304;DHT22;17112;48.636;10.152;2023-02-21T03:30:16;4.40;60.90
30304;DHT22;17112;48.636;10.152;2023-02-21T03:32:48;4.40;60.90
30304;DHT22;17112;48.636;10.152;2023-02-21T03:35:14;4.40;60.90
30304;DHT22;17112;48.636;10.152;2023-02-21T03:37:49;4.40;60.80
30304;DHT22;17112;48.636;10.152;2023-02-21T03:40:21;4.40;61.30
30304;DHT22;17112;48.636;10.152;2023-02-21T03:42:49;4.40;61.20
30304;DHT22;17112;48.636;10.152;2023-02-21T03:45:15;4.30;61.10
30304;DHT22;17112;48.636;10.152;2023-02-21T03:47:40;4.40;61.20
30304;DHT22;17112;48.636;10.152;2023-02-21T03:50:06;4.30;61.20
30304;DHT22;17112;48.636;10.152;2023-02-21T03:52:33;4.30;61.00
30304;DHT22;17112;48.636;10.152;2023-02-21T03:54:58;4.30;61.00
30304;DHT22;17112;48.636;10.152;2023-02-21T03:57:24;4.30;61.10
30304;DHT22;17112;48.636;10.152;2023-02-21T03:59:50;4.30;61.30
30304;DHT22;17112;48.636;10.152;2023-02-21T04:02:15;4.30;61.40
30304;DHT22;17112;48.636;10.152;2023-02-21T04:04:41;4.30;61.30
30304;DHT22;17112;48.636;10.152;2023-02-21T04:07:09;4.20;61.20
30304;DHT22;17112;48.636;10.152;2023-02-21T04:09:35;4.20;61.20
30304;DHT22;17112;48.636;10.152;2023-02-21T04:12:01;4.20;61.30
30304;DHT22;17112;48.636;10.152;2023-02-21T04:14:26;4.20;61.50
30304;DHT22;17112;48.636;10.152;2023-02-21T04:16:52;4.20;61.60
30304;DHT22;17112;48.636;10.152;2023-02-21T04:19:18;4.20;61.60
30304;DHT22;17112;48.636;10.152;2023-02-21T04:21:43;4.10;61.60
30304;DHT22;17112;48.636;10.152;2023-02-21T04:24:09;4.20;61.70
30304;DHT22;17112;48.636;10.152;2023-02-21T04:26:34;4.10;61.60
30304;DHT22;17112;48.636;10.152;2023-02-21T04:29:00;4.10;61.70
30304;DHT22;17112;48.636;10.152;2023-02-21T04:31:26;4.10;61.70
30304;DHT22;17112;48.636;10.152;2023-02-21T04:33:52;4.10;61.60
30304;DHT22;17112;48.636;10.152;2023-02-21T04:36:18;4.10;61.90
30304;DHT22;17112;48.636;10.152;2023-02-21T04:38:43;4.00;61.90
30304;DHT22;17112;48.636;10.152;2023-02-21T04:41:09;4.00;61.90
30304;DHT22;17112;48.636;10.152;2023-02-21T04:43:35;4.00;61.80
30304;DHT22;17112;48.636;10.152;2023-02-21T04:46:01;4.00;61.80
30304;DHT22;17112;48.636;10.152;2023-02-21T04:48:26;4.00;61.80
30304;DHT22;17112;48.636;10.152;2023-02-21T04:50:52;4.00;61.90
30304;DHT22;17112;48.636;10.152;2023-02-21T04:53:18;4.00;61.90
30304;DHT22;17112;48.636;10.152;2023-02-21T04:55:43;4.00;62.00
30304;DHT22;17112;48.636;10.152;2023-02-21T04:58:09;4.10;62.00
30304;DHT22;17112;48.636;10.152;2023-02-21T05:00:35;3.90;61.90
30304;DHT22;17112;48.636;10.152;2023-02-21T05:03:00;3.90;61.80
30304;DHT22;17112;48.636;10.152;2023-02-21T05:05:26;3.90;61.70
30304;DHT22;17112;48.636;10.152;2023-02-21T05:07:52;3.90;61.60
30304;DHT22;17112;48.636;10.152;2023-02-21T05:10:18;3.80;61.60
30304;DHT22;17112;48.636;10.152;2023-02-21T05:12:44;3.80;61.80
30304;DHT22;17112;48.636;10.152;2023-02-21T05:15:11;3.80;61.80
30304;DHT22;17112;48.636;10.152;2023-02-21T05:17:37;3.80;61.90
30304;DHT22;17112;48.636;10.152;2023-02-21T05:20:04;3.80;61.90
30304;DHT22;17112;48.636;10.152;2023-02-21T05:22:37;3.80;62.10
30304;DHT22;17112;48.636;10.152;2023-02-21T05:25:15;3.80;62.10
30304;DHT22;17112;48.636;10.152;2023-02-21T05:27:41;3.80;62.10
30304;DHT22;17112;48.636;10.152;2023-02-21T05:30:07;3.80;62.20
30304;DHT22;17112;48.636;10.152;2023-02-21T05:32:33;3.80;62.30
30304;DHT22;17112;48.636;10.152;2023-02-21T05:34:58;3.80;62.30
30304;DHT22;17112;48.636;10.152;2023-02-21T05:37:24;3.80;62.30
30304;DHT22;17112;48.636;10.152;2023-02-21T05:39:51;3.80;62.30
30304;DHT22;17112;48.636;10.152;2023-02-21T05:42:17;3.80;62.40
30304;DHT22;17112;48.636;10.152;2023-02-21T05:44:45;3.70;62.30
30304;DHT22;17112;48.636;10.152;2023-02-21T05:47:11;3.80;62.50
30304;DHT22;17112;48.636;10.152;2023-02-21T05:49:37;3.70;62.40
30304;DHT22;17112;48.636;10.152;2023-02-21T05:52:03;3.70;62.40
30304;DHT22;17112;48.636;10.152;2023-02-21T05:54:29;3.70;62.30
30304;DHT22;17112;48.636;10.152;2023-02-21T05:56:55;3.70;62.30
30304;DHT22;17112;48.636;10.152;2023-02-21T05:59:21;3.70;62.30
30304;DHT22;17112;48.636;10.152;2023-02-21T06:01:47;3.60;62.30
30304;DHT22;17112;48.636;10.152;2023-02-21T06:04:13;3.60;62.50
30304;DHT22;17112;48.636;10.152;2023-02-21T06:06:39;3.60;62.60
30304;DHT22;17112;48.636;10.152;2023-02-21T06:09:05;3.60;62.70
30304;DHT22;17112;48.636;10.152;2023-02-21T06:11:33;3.60;63.00
30304;DHT22;17112;48.636;10.152;2023-02-21T06:14:02;3.60;63.00
30304;DHT22;17112;48.636;10.152;2023-02-21T06:16:35;3.60;63.00
30304;DHT22;17112;48.636;10.152;2023-02-21T06:19:02;3.60;63.30
30304;DHT22;17112;48.636;10.152;2023-02-21T06:21:28;3.60;63.30
30304;DHT22;17112;48.636;10.152;2023-02-21T06:23:54;3.60;63.20
30304;DHT22;17112;48.636;10.152;2023-02-21T06:26:20;3.60;63.10
30304;DHT22;17112;48.636;10.152;2023-02-21T06:28:47;3.60;63.70
30304;DHT22;17112;48.636;10.152;2023-02-21T06:31:13;3.70;63.00
30304;DHT22;17112;48.636;10.152;2023-02-21T06:33:39;3.60;63.00
30304;DHT22;17112;48.636;10.152;2023-02-21T06:36:06;3.70;63.10
30304;DHT22;17112;48.636;10.152;2023-02-21T06:38:33;3.70;63.20
30304;DHT22;17112;48.636;10.152;2023-02-21T06:40:59;3.70;63.20
30304;DHT22;17112;48.636;10.152;2023-02-21T06:43:25;3.70;63.20
30304;DHT22;17112;48.636;10.152;2023-02-21T06:45:50;3.70;63.20
30304;DHT22;17112;48.636;10.152;2023-02-21T06:48:17;3.70;63.30
30304;DHT22;17112;48.636;10.152;2023-02-21T06:50:43;3.80;63.30
30304;DHT22;17112;48.636;10.152;2023-02-21T06:53:09;3.80;63.30
30304;DHT22;17112;48.636;10.152;2023-02-21T06:55:34;3.80;63.50
30304;DHT22;17112;48.636;10.152;2023-02-21T06:58:00;3.90;63.60
30304;DHT22;17112;48.636;10.152;2023-02-21T07:00:26;3.90;63.80
30304;DHT22;17112;48.636;10.152;2023-02-21T07:02:52;3.90;64.00
30304;DHT22;17112;48.636;10.152;2023-02-21T07:05:18;4.00;64.40
30304;DHT22;17112;48.636;10.152;2023-02-21T07:07:44;4.00;64.30
30304;DHT22;17112;48.636;10.152;2023-02-21T07:10:10;4.10;64.40
30304;DHT22;17112;48.636;10.152;2023-02-21T07:12:36;4.20;65.10
30304;DHT22;17112;48.636;10.152;2023-02-21T07:15:02;4.20;64.50
30304;DHT22;17112;48.636;10.152;2023-02-21T07:17:28;4.30;64.60
30304;DHT22;17112;48.636;10.152;2023-02-21T07:19:53;4.40;64.70
30304;DHT22;17112;48.636;10.152;2023-02-21T07:22:19;4.50;64.60
30304;DHT22;17112;48.636;10.152;2023-02-21T07:24:51;4.60;64.70
30304;DHT22;17112;48.636;10.152;2023-02-21T07:27:17;4.60;64.50
30304;DHT22;17112;48.636;10.152;2023-02-21T07:29:46;4.70;64.50
30304;DHT22;17112;48.636;10.152;2023-02-21T07:32:12;4.80;64.50
30304;DHT22;17112;48.636;10.152;2023-02-21T07:34:37;4.80;64.30
30304;DHT22;17112;48.636;10.152;2023-02-21T07:37:03;4.90;64.30
30304;DHT22;17112;48.636;10.152;2023-02-21T07:39:29;5.10;64.30
30304;DHT22;17112;48.636;10.152;2023-02-21T07:41:54;5.10;64.20
30304;DHT22;17112;48.636;10.152;2023-02-21T07:44:20;5.20;64.30
30304;DHT22;17112;48.636;10.152;2023-02-21T07:46:46;5.30;64.30
30304;DHT22;17112;48.636;10.152;2023-02-21T07:49:11;5.40;64.30
30304;DHT22;17112;48.636;10.152;2023-02-21T07:51:37;5.50;64.30
30304;DHT22;17112;48.636;10.152;2023-02-21T07:54:03;5.60;64.30
30304;DHT22;17112;48.636;10.152;2023-02-21T07:56:28;5.70;64.20
30304;DHT22;17112;48.636;10.152;2023-02-21T07:58:54;5.90;64.20
30304;DHT22;17112;48.636;10.152;2023-02-21T08:01:23;6.00;64.10
30304;DHT22;17112;48.636;10.152;2023-02-21T08:03:48;6.10;64.10
30304;DHT22;17112;48.636;10.152;2023-02-21T08:06:14;6.30;63.90
30304;DHT22;17112;48.636;10.152;2023-02-21T08:08:40;6.50;63.70
30304;DHT22;17112;48.636;10.152;2023-02-21T08:11:05;6.60;63.40
30304;DHT22;17112;48.636;10.152;2023-02-21T08:13:31;6.70;63.30
30304;DHT22;17112;48.636;10.152;2023-02-21T08:15:57;6.80;63.00
30304;DHT22;17112;48.636;10.152;2023-02-21T08:18:23;7.00;62.90
30304;DHT22;17112;48.636;10.152;2023-02-21T08:20:53;7.10;62.80
30304;DHT22;17112;48.636;10.152;2023-02-21T08:23:20;7.30;62.70
30304;DHT22;17112;48.636;10.152;2023-02-21T08:25:46;7.40;62.40
30304;DHT22;17112;48.636;10.152;2023-02-21T08:28:13;7.60;62.30
30304;DHT22;17112;48.636;10.152;2023-02-21T08:30:39;7.70;62.10
30304;DHT22;17112;48.636;10.152;2023-02-21T08:33:05;7.90;61.90
30304;DHT22;17112;48.636;10.152;2023-02-21T08:35:30;8.10;61.80
30304;DHT22;17112;48.636;10.152;2023-02-21T08:37:56;8.20;61.60
30304;DHT22;17112;48.636;10.152;2023-02-21T08:40:28;8.30;61.30
30304;DHT22;17112;48.636;10.152;2023-02-21T08:42:56;8.50;61.20
30304;DHT22;17112;48.636;10.152;2023-02-21T08:45:23;8.60;60.90
30304;DHT22;17112;48.636;10.152;2023-02-21T08:47:50;8.70;60.90
30304;DHT22;17112;48.636;10.152;2023-02-21T08:50:17;8.90;60.90
30304;DHT22;17112;48.636;10.152;2023-02-21T08:52:45;9.00;60.80
30304;DHT22;17112;48.636;10.152;2023-02-21T08:55:11;9.20;61.50
30304;DHT22;17112;48.636;10.152;2023-02-21T08:57:36;9.40;60.70
30304;DHT22;17112;48.636;10.152;2023-02-21T09:00:03;9.60;60.50
30304;DHT22;17112;48.636;10.152;2023-02-21T09:02:31;9.80;60.40
30304;DHT22;17112;48.636;10.152;2023-02-21T09:04:57;9.90;60.20
30304;DHT22;17112;48.636;10.152;2023-02-21T09:07:24;10.20;60.10
30304;DHT22;17112;48.636;10.152;2023-02-21T09:09:50;10.40;59.70
30304;DHT22;17112;48.636;10.152;2023-02-21T09:12:16;10.60;59.50
30304;DHT22;17112;48.636;10.152;2023-02-21T09:14:42;10.80;59.40
30304;DHT22;17112;48.636;10.152;2023-02-21T09:17:10;11.00;59.20
30304;DHT22;17112;48.636;10.152;2023-02-21T09:19:36;11.20;59.00
30304;DHT22;17112;48.636;10.152;2023-02-21T09:22:02;11.40;58.80
30304;DHT22;17112;48.636;10.152;2023-02-21T09:24:30;11.60;58.50
30304;DHT22;17112;48.636;10.152;2023-02-21T09:26:58;11.80;58.30
30304;DHT22;17112;48.636;10.152;2023-02-21T09:29:25;12.00;58.00
30304;DHT22;17112;48.636;10.152;2023-02-21T09:31:51;12.10;57.70
30304;DHT22;17112;48.636;10.152;2023-02-21T09:34:17;12.30;57.50
30304;DHT22;17112;48.636;10.152;2023-02-21T09:36:43;12.50;57.40
30304;DHT22;17112;48.636;10.152;2023-02-21T09:39:09;12.70;56.70
30304;DHT22;17112;48.636;10.152;2023-02-21T09:41:37;12.80;56.70
30304;DHT22;17112;48.636;10.152;2023-02-21T09:44:05;13.00;56.50
30304;DHT22;17112;48.636;10.152;2023-02-21T09:46:38;13.20;56.10
30304;DHT22;17112;48.636;10.152;2023-02-21T09:49:29;13.30;55.20
30304;DHT22;17112;48.636;10.152;2023-02-21T09:51:57;13.50;55.30
30304;DHT22;17112;48.636;10.152;2023-02-21T09:54:33;13.60;55.30
30304;DHT22;17112;48.636;10.152;2023-02-21T09:57:02;13.80;54.90
30304;DHT22;17112;48.636;10.152;2023-02-21T09:59:29;13.90;55.00
30304;DHT22;17112;48.636;10.152;2023-02-21T10:04:54;14.20;54.10
30304;DHT22;17112;48.636;10.152;2023-02-21T10:07:42;14.40;53.30
30304;DHT22;17112;48.636;10.152;2023-02-21T10:10:17;14.60;53.50
30304;DHT22;17112;48.636;10.152;2023-02-21T10:13:00;14.70;53.40
30304;DHT22;17112;48.636;10.152;2023-02-21T10:18:44;15.00;52.60
30304;DHT22;17112;48.636;10.152;2023-02-21T10:21:30;15.10;53.20
30304;DHT22;17112;48.636;10.152;2023-02-21T10:23:58;15.20;52.50
30304;DHT22;17112;48.636;10.152;2023-02-21T10:26:32;15.30;52.80
30304;DHT22;17112;48.636;10.152;2023-02-21T10:29:04;15.50;52.70
30304;DHT22;17112;48.636;10.152;2023-02-21T10:31:35;15.60;52.60
30304;DHT22;17112;48.636;10.152;2023-02-21T10:34:05;15.70;52.50
30304;DHT22;17112;48.636;10.152;2023-02-21T10:36:33;15.80;52.90
30304;DHT22;17112;48.636;10.152;2023-02-21T10:39:03;15.90;52.10
30304;DHT22;17112;48.636;10.152;2023-02-21T10:41:34;16.00;52.10
30304;DHT22;17112;48.636;10.152;2023-02-21T10:44:06;16.20;51.90
30304;DHT22;17112;48.636;10.152;2023-02-21T10:46:38;16.30;51.40
30304;DHT22;17112;48.636;10.152;2023-02-21T10:49:34;16.40;51.20
30304;DHT22;17112;48.636;10.152;2023-02-21T10:54:33;16.70;50.60
30304;DHT22;17112;48.636;10.152;2023-02-21T10:56:59;16.80;50.90
30304;DHT22;17112;48.636;10.152;2023-02-21T10:59:37;16.80;50.60
30304;DHT22;17112;48.636;10.152;2023-02-21T11:02:31;16.90;50.50
30304;DHT22;17112;48.636;10.152;2023-02-21T11:07:33;17.20;49.10
30304;DHT22;17112;48.636;10.152;2023-02-21T11:09:59;17.20;49.80
30304;DHT22;17112;48.636;10.152;2023-02-21T11:12:27;17.30;49.50
30304;DHT22;17112;48.636;10.152;2023-02-21T11:17:23;17.50;49.20
30304;DHT22;17112;48.636;10.152;2023-02-21T11:20:14;17.50;49.10
30304;DHT22;17112;48.636;10.152;2023-02-21T11:22:45;17.60;49.00
30304;DHT22;17112;48.636;10.152;2023-02-21T11:27:37;17.80;48.20
30304;DHT22;17112;48.636;10.152;2023-02-21T11:30:13;17.90;48.20
30304;DHT22;17112;48.636;10.152;2023-02-21T11:32:42;18.00;46.80
30304;DHT22;17112;48.636;10.152;2023-02-21T11:40:31;18.20;47.00
30304;DHT22;17112;48.636;10.152;2023-02-21T11:43:24;18.20;47.10
30304;DHT22;17112;48.636;10.152;2023-02-21T11:48:20;18.30;47.50
30304;DHT22;17112;48.636;10.152;2023-02-21T11:50:52;18.40;47.20
30304;DHT22;17112;48.636;10.152;2023-02-21T11:53:23;18.50;47.10
30304;DHT22;17112;48.636;10.152;2023-02-21T12:04:51;18.80;46.40
30304;DHT22;17112;48.636;10.152;2023-02-21T12:07:37;18.80;46.50
30304;DHT22;17112;48.636;10.152;2023-02-21T12:24:26;19.30;43.80
30304;DHT22;17112;48.636;10.152;2023-02-21T12:35:47;19.50;44.30
30304;DHT22;17112;48.636;10.152;2023-02-21T12:38:07;19.50;44.90
30304;DHT22;17112;48.636;10.152;2023-02-21T12:43:49;19.60;44.90
30304;DHT22;17112;48.636;10.152;2023-02-21T12:51:40;19.80;43.80
30304;DHT22;17112;48.636;10.152;2023-02-21T12:54:22;19.90;45.20
30304;DHT22;17112;48.636;10.152;2023-02-21T12:57:02;19.90;44.70
30304;DHT22;17112;48.636;10.152;2023-02-21T12:59:38;20.00;44.00
30304;DHT22;17112;48.636;10.152;2023-02-21T13:02:15;20.10;44.30
30304;DHT22;17112;48.636;10.152;2023-02-21T13:05:08;20.20;43.80
30304;DHT22;17112;48.636;10.152;2023-02-21T13:07:44;20.20;43.00
30304;DHT22;17112;48.636;10.152;2023-02-21T13:10:18;20.30;43.80
30304;DHT22;17112;48.636;10.152;2023-02-21T13:15:22;20.40;43.30
30304;DHT22;17112;48.636;10.152;2023-02-21T13:17:59;20.40;42.00
30304;DHT22;17112;48.636;10.152;2023-02-21T13:20:28;20.30;42.00
30304;DHT22;17112;48.636;10.152;2023-02-21T13:22:57;20.30;42.00
30304;DHT22;17112;48.636;10.152;2023-02-21T13:26:00;20.30;42.00
30304;DHT22;17112;48.636;10.152;2023-02-21T13:28:29;20.20;41.50
30304;DHT22;17112;48.636;10.152;2023-02-21T13:31:00;20.20;42.30
30304;DHT22;17112;48.636;10.152;2023-02-21T13:33:37;20.20;42.50
30304;DHT22;17112;48.636;10.152;2023-02-21T13:38:55;20.30;41.90
30304;DHT22;17112;48.636;10.152;2023-02-21T13:41:25;20.40;42.20
30304;DHT22;17112;48.636;10.152;2023-02-21T13:43:53;20.50;42.40
30304;DHT22;17112;48.636;10.152;2023-02-21T13:57:42;21.00;41.20
30304;DHT22;17112;48.636;10.152;2023-02-21T14:06:06;21.40;40.60
30304;DHT22;17112;48.636;10.152;2023-02-21T14:11:00;21.60;40.70
30304;DHT22;17112;48.636;10.152;2023-02-21T14:16:08;21.70;40.30
30304;DHT22;17112;48.636;10.152;2023-02-21T14:18:56;21.70;39.90
30304;DHT22;17112;48.636;10.152;2023-02-21T14:26:50;22.00;39.30
30304;DHT22;17112;48.636;10.152;2023-02-21T14:39:43;22.40;38.30
30304;DHT22;17112;48.636;10.152;2023-02-21T14:44:48;22.50;39.10
30304;DHT22;17112;48.636;10.152;2023-02-21T14:47:31;22.60;38.50
30304;DHT22;17112;48.636;10.152;2023-02-21T14:50:32;22.80;38.30
30304;DHT22;17112;48.636;10.152;2023-02-21T15:07:19;23.10;37.20
30304;DHT22;17112;48.636;10.152;2023-02-21T15:10:15;23.10;36.20
30304;DHT22;17112;48.636;10.152;2023-02-21T15:12:53;23.10;35.70
30304;DHT22;17112;48.636;10.152;2023-02-21T15:15:32;23.20;36.20
30304;DHT22;17112;48.636;10.152;2023-02-21T15:18:03;23.20;36.50
30304;DHT22;17112;48.636;10.152;2023-02-21T15:20:32;23.20;36.00
30304;DHT22;17112;48.636;10.152;2023-02-21T15:23:20;23.20;36.00
30304;DHT22;17112;48.636;10.152;2023-02-21T15:25:56;23.20;35.10
30304;DHT22;17112;48.636;10.152;2023-02-21T15:28:25;23.20;35.70
30304;DHT22;17112;48.636;10.152;2023-02-21T15:31:07;23.20;35.40
30304;DHT22;17112;48.636;10.152;2023-02-21T15:33:38;23.10;34.80
30304;DHT22;17112;48.636;10.152;2023-02-21T15:36:15;23.10;35.50
30304;DHT22;17112;48.636;10.152;2023-02-21T15:41:31;23.00;35.30
30304;DHT22;17112;48.636;10.152;2023-02-21T15:46:31;22.90;35.50
30304;DHT22;17112;48.636;10.152;2023-02-21T15:49:02;22.90;35.40
30304;DHT22;17112;48.636;10.152;2023-02-21T15:51:28;22.90;35.00
30304;DHT22;17112;48.636;10.152;2023-02-21T15:54:08;22.80;35.10
30304;DHT22;17112;48.636;10.152;2023-02-21T15:56:34;22.70;34.50
30304;DHT22;17112;48.636;10.152;2023-02-21T15:59:06;22.40;34.90
30304;DHT22;17112;48.636;10.152;2023-02-21T16:01:32;22.10;34.70
30304;DHT22;17112;48.636;10.152;2023-02-21T16:04:18;21.80;35.30
30304;DHT22;17112;48.636;10.152;2023-02-21T16:07:06;21.40;35.10
30304;DHT22;17112;48.636;10.152;2023-02-21T16:09:33;21.10;35.60
30304;DHT22;17112;48.636;10.152;2023-02-21T16:14:56;20.50;36.70
30304;DHT22;17112;48.636;10.152;2023-02-21T16:20:11;19.90;37.30
30304;DHT22;17112;48.636;10.152;2023-02-21T16:22:39;19.60;37.80
30304;DHT22;17112;48.636;10.152;2023-02-21T16:27:31;18.90;38.50
30304;DHT22;17112;48.636;10.152;2023-02-21T16:29:57;18.70;38.90
30304;DHT22;17112;48.636;10.152;2023-02-21T16:32:23;18.40;39.90
30304;DHT22;17112;48.636;10.152;2023-02-21T16:34:50;18.20;39.70
30304;DHT22;17112;48.636;10.152;2023-02-21T16:37:20;17.90;40.00
30304;DHT22;17112;48.636;10.152;2023-02-21T16:39:46;17.70;40.30
30304;DHT22;17112;48.636;10.152;2023-02-21T16:42:12;17.60;40.70
30304;DHT22;17112;48.636;10.152;2023-02-21T16:44:38;17.30;40.90
30304;DHT22;17112;48.636;10.152;2023-02-21T16:47:05;17.20;41.30
30304;DHT22;17112;48.636;10.152;2023-02-21T16:49:31;16.90;41.50
30304;DHT22;17112;48.636;10.152;2023-02-21T16:51:57;16.80;41.80
30304;DHT22;17112;48.636;10.152;2023-02-21T16:54:23;16.60;42.00
30304;DHT22;17112;48.636;10.152;2023-02-21T16:56:50;16.50;42.30
30304;DHT22;17112;48.636;10.152;2023-02-21T16:59:19;16.30;42.50
30304;DHT22;17112;48.636;10.152;2023-02-21T17:01:46;16.20;42.90
30304;DHT22;17112;48.636;10.152;2023-02-21T17:04:20;16.10;43.10
30304;DHT22;17112;48.636;10.152;2023-02-21T17:06:50;15.90;43.40
30304;DHT22;17112;48.636;10.152;2023-02-21T17:09:23;15.80;43.80
30304;DHT22;17112;48.636;10.152;2023-02-21T17:11:49;15.70;44.10
30304;DHT22;17112;48.636;10.152;2023-02-21T17:14:15;15.60;44.30
30304;DHT22;17112;48.636;10.152;2023-02-21T17:16:41;15.40;44.50
30304;DHT22;17112;48.636;10.152;2023-02-21T17:19:12;15.30;44.70
30304;DHT22;17112;48.636;10.152;2023-02-21T17:21:38;15.20;45.10
30304;DHT22;17112;48.636;10.152;2023-02-21T17:24:04;15.10;45.30
30304;DHT22;17112;48.636;10.152;2023-02-21T17:26:30;15.00;45.60
30304;DHT22;17112;48.636;10.152;2023-02-21T17:28:55;14.90;45.80
30304;DHT22;17112;48.636;10.152;2023-02-21T17:31:21;14.70;46.00
30304;DHT22;17112;48.636;10.152;2023-02-21T17:33:47;14.70;46.30
30304;DHT22;17112;48.636;10.152;2023-02-21T17:36:17;14.50;46.50
30304;DHT22;17112;48.636;10.152;2023-02-21T17:38:43;14.40;46.90
30304;DHT22;17112;48.636;10.152;2023-02-21T17:41:09;14.30;46.90
30304;DHT22;17112;48.636;10.152;2023-02-21T17:43:35;14.20;47.20
30304;DHT22;17112;48.636;10.152;2023-02-21T17:46:00;14.10;47.50
30304;DHT22;17112;48.636;10.152;2023-02-21T17:48:26;13.90;47.70
30304;DHT22;17112;48.636;10.152;2023-02-21T17:50:52;13.80;47.90
30304;DHT22;17112;48.636;10.152;2023-02-21T17:53:18;13.70;48.10
30304;DHT22;17112;48.636;10.152;2023-02-21T17:55:44;13.60;48.30
30304;DHT22;17112;48.636;10.152;2023-02-21T17:58:09;13.50;48.50
30304;DHT22;17112;48.636;10.152;2023-02-21T18:00:35;13.40;48.70
30304;DHT22;17112;48.636;10.152;2023-02-21T18:03:02;13.40;48.90
30304;DHT22;17112;48.636;10.152;2023-02-21T18:05:32;13.20;49.00
30304;DHT22;17112;48.636;10.152;2023-02-21T18:07:58;13.20;49.40
30304;DHT22;17112;48.636;10.152;2023-02-21T18:10:25;13.00;49.40
30304;DHT22;17112;48.636;10.152;2023-02-21T18:12:51;12.90;49.50
30304;DHT22;17112;48.636;10.152;2023-02-21T18:15:19;12.80;49.70
30304;DHT22;17112;48.636;10.152;2023-02-21T18:17:46;12.70;50.00
30304;DHT22;17112;48.636;10.152;2023-02-21T18:20:12;12.60;50.00
30304;DHT22;17112;48.636;10.152;2023-02-21T18:22:40;12.60;50.20
30304;DHT22;17112;48.636;10.152;2023-02-21T18:25:05;12.50;50.30
30304;DHT22;17112;48.636;10.152;2023-02-21T18:27:33;12.40;50.40
30304;DHT22;17112;48.636;10.152;2023-02-21T18:29:59;12.30;50.60
30304;DHT22;17112;48.636;10.152;2023-02-21T18:32:28;12.20;50.70
30304;DHT22;17112;48.636;10.152;2023-02-21T18:34:54;12.10;50.90
30304;DHT22;17112;48.636;10.152;2023-02-21T18:37:24;12.00;51.00